createdAt,value
2023-01-17T00:01:13.347Z,71.89
2023-01-17T00:03:58.908Z,72.70
2023-01-17T00:06:44.290Z,71.66
2023-01-17T00:09:29.656Z,71.13
2023-01-17T00:11:56.620Z,70.65
2023-01-17T00:14:23.227Z,70.39
2023-01-17T00:16:49.753Z,71.06
2023-01-17T00:19:34.920Z,70.86
2023-01-17T00:22:20.057Z,71.60
2023-01-17T00:25:05.146Z,70.78
2023-01-17T00:27:31.684Z,72.06
2023-01-17T00:29:58.108Z,71.62
2023-01-17T00:32:24.583Z,72.14
2023-01-17T00:34:51.106Z,71.46
2023-01-17T00:37:17.534Z,72.25
2023-01-17T00:39:43.979Z,72.20
2023-01-17T00:42:10.446Z,71.61
2023-01-17T00:44:55.608Z,71.37
2023-01-17T00:47:40.508Z,71.36
2023-01-17T00:50:25.607Z,71.50
2023-01-17T00:53:10.682Z,71.20
2023-01-17T00:55:55.734Z,70.97
2023-01-17T00:58:40.966Z,71.83
2023-01-17T01:01:26.217Z,71.26
2023-01-17T01:04:11.832Z,71.39
2023-01-17T01:06:56.961Z,71.24
2023-01-17T01:09:42.106Z,71.15
2023-01-17T01:12:27.430Z,71.55
2023-01-17T01:15:12.591Z,70.61
2023-01-17T01:17:57.495Z,71.81
2023-01-17T01:20:42.967Z,72.14
2023-01-17T01:23:28.018Z,71.62
2023-01-17T01:26:13.220Z,72.32
2023-01-17T01:28:58.230Z,72.34
2023-01-17T01:31:43.414Z,71.78
2023-01-17T01:34:09.957Z,71.96
2023-01-17T01:36:36.491Z,72.32
2023-01-17T01:39:03.110Z,72.26
2023-01-17T01:41:29.625Z,72.50
2023-01-17T01:43:56.125Z,71.23
2023-01-17T01:46:30.437Z,72.17
2023-01-17T01:49:02.062Z,71.55
2023-01-17T01:51:31.944Z,72.17
2023-01-17T01:54:05.102Z,71.87
2023-01-17T01:56:31.687Z,71.82
2023-01-17T01:58:58.218Z,71.50
2023-01-17T02:01:24.903Z,71.74
2023-01-17T02:03:51.462Z,71.52
2023-01-17T02:06:21.105Z,71.40
2023-01-17T02:08:47.933Z,71.30
2023-01-17T02:11:14.739Z,70.94
2023-01-17T02:13:41.241Z,71.15
2023-01-17T02:16:26.609Z,70.95
2023-01-17T02:19:07.854Z,71.19
2023-01-17T02:21:37.574Z,71.36
2023-01-17T02:25:00.989Z,71.69
2023-01-17T02:27:32.916Z,71.53
2023-01-17T02:30:20.855Z,71.80
2023-01-17T02:33:11.649Z,72.05
2023-01-17T02:35:54.710Z,71.78
2023-01-17T02:38:47.360Z,71.90
2023-01-17T02:41:16.999Z,72.11
2023-01-17T02:43:43.483Z,72.37
2023-01-17T02:46:10.104Z,71.89
2023-01-17T02:48:36.969Z,72.09
2023-01-17T02:51:19.350Z,72.82
2023-01-17T02:54:18.042Z,72.96
2023-01-17T02:57:13.801Z,72.23
2023-01-17T03:00:19.567Z,72.66
2023-01-17T03:03:12.305Z,72.92
2023-01-17T03:06:11.802Z,73.32
2023-01-17T03:08:40.284Z,73.25
2023-01-17T03:11:10.346Z,73.88
2023-01-17T03:13:37.008Z,73.61
2023-01-17T03:16:06.422Z,73.94
2023-01-17T03:18:32.974Z,73.26
2023-01-17T03:20:59.453Z,73.79
2023-01-17T03:23:26.036Z,74.41
2023-01-17T03:25:52.561Z,75.20
2023-01-17T03:28:19.093Z,75.23
2023-01-17T03:30:45.681Z,75.11
2023-01-17T03:33:12.170Z,75.04
2023-01-17T03:35:38.685Z,74.80
2023-01-17T03:38:05.188Z,73.98
2023-01-17T03:40:31.689Z,74.36
2023-01-17T03:42:58.137Z,74.81
2023-01-17T03:45:24.689Z,74.55
2023-01-17T03:47:51.238Z,74.75
2023-01-17T03:50:17.805Z,74.66
2023-01-17T03:52:44.353Z,74.63
2023-01-17T03:55:10.840Z,74.72
2023-01-17T03:57:37.358Z,73.98
2023-01-17T04:00:04.237Z,74.79
2023-01-17T04:02:30.745Z,74.78
2023-01-17T04:04:57.290Z,75.20
2023-01-17T04:07:23.824Z,74.99
2023-01-17T04:09:50.300Z,74.89
2023-01-17T04:12:16.771Z,75.40
2023-01-17T04:14:43.250Z,74.60
2023-01-17T04:17:12.580Z,74.61
2023-01-17T04:19:39.064Z,75.14
2023-01-17T04:22:05.626Z,74.20
2023-01-17T04:24:32.185Z,72.90
2023-01-17T04:26:58.788Z,71.48
2023-01-17T04:29:25.381Z,71.22
2023-01-17T04:31:51.962Z,71.57
2023-01-17T04:34:18.560Z,70.71
2023-01-17T04:36:45.164Z,70.43
2023-01-17T04:39:11.718Z,69.49
2023-01-17T04:41:38.338Z,69.76
2023-01-17T04:44:04.932Z,68.25
2023-01-17T04:46:31.901Z,67.63
2023-01-17T04:48:59.221Z,67.67
2023-01-17T04:51:25.825Z,68.42
2023-01-17T04:53:52.375Z,66.93
2023-01-17T04:56:19.721Z,67.71
2023-01-17T04:58:46.253Z,67.53
2023-01-17T05:01:12.901Z,67.28
2023-01-17T05:03:39.601Z,68.50
2023-01-17T05:06:06.274Z,67.25
2023-01-17T05:08:34.206Z,68.28
2023-01-17T05:11:04.591Z,68.38
2023-01-17T05:13:34.850Z,68.54
2023-01-17T05:16:05.214Z,68.88
2023-01-17T05:18:33.714Z,69.28
2023-01-17T05:21:06.437Z,68.86
2023-01-17T05:23:34.700Z,67.31
2023-01-17T05:26:04.185Z,67.86
2023-01-17T05:28:31.787Z,69.00
2023-01-17T05:31:00.353Z,70.35
2023-01-17T05:33:27.072Z,71.07
2023-01-17T05:35:53.637Z,70.87
2023-01-17T05:38:23.694Z,71.21
2023-01-17T05:40:50.321Z,71.25
2023-01-17T05:43:16.894Z,72.03
2023-01-17T05:45:43.465Z,71.95
2023-01-17T05:48:09.972Z,72.56
2023-01-17T05:50:37.260Z,73.51
2023-01-17T05:53:03.687Z,73.10
2023-01-17T05:55:30.360Z,73.89
2023-01-17T05:57:56.914Z,74.96
2023-01-17T06:00:23.600Z,76.48
2023-01-17T06:02:50.259Z,76.68
2023-01-17T06:05:17.004Z,77.20
2023-01-17T06:07:44.925Z,78.17
2023-01-17T06:10:14.845Z,77.56
2023-01-17T06:12:42.250Z,78.28
2023-01-17T06:15:09.044Z,78.53
2023-01-17T06:17:35.956Z,78.68
2023-01-17T06:20:04.098Z,78.89
2023-01-17T06:22:30.597Z,79.35
2023-01-17T06:24:57.089Z,78.66
2023-01-17T06:27:23.652Z,79.22
2023-01-17T06:29:51.349Z,79.43
2023-01-17T06:32:17.829Z,80.03
2023-01-17T06:34:44.330Z,80.20
2023-01-17T06:37:10.866Z,80.53
2023-01-17T06:39:37.369Z,80.91
2023-01-17T06:42:03.907Z,81.99
2023-01-17T06:44:30.445Z,82.92
2023-01-17T06:46:57.013Z,84.00
2023-01-17T06:49:23.581Z,84.21
2023-01-17T06:51:50.519Z,84.09
2023-01-17T06:54:17.031Z,83.07
2023-01-17T06:56:43.496Z,81.77
2023-01-17T06:59:10.026Z,81.82
2023-01-17T07:01:36.756Z,82.29
2023-01-17T07:04:04.216Z,82.06
2023-01-17T07:06:30.932Z,81.71
2023-01-17T07:08:57.513Z,81.13
2023-01-17T07:11:24.075Z,81.29
2023-01-17T07:13:50.592Z,81.58
2023-01-17T07:16:17.220Z,81.75
2023-01-17T07:18:43.788Z,81.93
2023-01-17T07:21:14.592Z,81.64
2023-01-17T07:23:41.245Z,81.81
2023-01-17T07:26:07.838Z,81.68
2023-01-17T07:28:34.339Z,81.39
2023-01-17T07:31:10.311Z,81.43
2023-01-17T07:33:37.324Z,82.20
2023-01-17T07:36:07.435Z,82.46
2023-01-17T07:38:34.527Z,82.62
2023-01-17T07:41:01.205Z,82.43
2023-01-17T07:43:27.737Z,83.04
2023-01-17T07:45:54.297Z,82.87
2023-01-17T07:48:22.684Z,82.83
2023-01-17T07:50:55.950Z,82.20
2023-01-17T07:53:23.684Z,82.39
2023-01-17T07:55:50.184Z,82.01
2023-01-17T07:58:16.772Z,81.62
2023-01-17T08:00:44.822Z,81.22
2023-01-17T08:03:15.325Z,81.49
2023-01-17T08:05:42.574Z,81.43
2023-01-17T08:08:09.301Z,81.21
2023-01-17T08:10:36.065Z,80.90
2023-01-17T08:13:02.664Z,80.92
2023-01-17T08:15:29.202Z,80.67
2023-01-17T08:17:57.676Z,80.41
2023-01-17T08:20:27.469Z,80.32
2023-01-17T08:22:55.719Z,80.03
2023-01-17T08:25:25.882Z,79.68
2023-01-17T08:27:57.976Z,79.96
2023-01-17T08:30:25.073Z,80.18
2023-01-17T08:32:51.625Z,80.91
2023-01-17T08:35:20.404Z,81.39
2023-01-17T08:37:47.814Z,81.63
2023-01-17T08:40:17.014Z,82.80
2023-01-17T08:42:44.279Z,83.47
2023-01-17T08:45:11.423Z,82.87
2023-01-17T08:47:37.982Z,82.53
2023-01-17T08:50:06.754Z,82.41
2023-01-17T08:52:33.442Z,82.90
2023-01-17T08:54:59.957Z,82.30
2023-01-17T08:57:26.558Z,81.88
2023-01-17T08:59:53.059Z,81.07
2023-01-17T09:02:19.721Z,79.73
2023-01-17T09:04:47.201Z,80.64
2023-01-17T09:07:14.265Z,80.08
2023-01-17T09:09:40.743Z,79.71
2023-01-17T09:12:07.260Z,79.47
2023-01-17T09:14:34.599Z,80.25
2023-01-17T09:17:01.244Z,79.92
2023-01-17T09:19:27.751Z,79.13
2023-01-17T09:21:54.214Z,79.32
2023-01-17T09:24:20.764Z,79.69
2023-01-17T09:26:47.260Z,78.96
2023-01-17T09:29:17.667Z,79.27
2023-01-17T09:31:48.103Z,79.05
2023-01-17T09:34:14.636Z,78.07
2023-01-17T09:36:41.759Z,77.10
2023-01-17T09:39:10.145Z,77.77
2023-01-17T09:41:57.941Z,76.92
2023-01-17T09:44:33.537Z,78.11
2023-01-17T09:47:03.533Z,76.02
2023-01-17T09:49:42.290Z,75.77
2023-01-17T09:52:10.087Z,75.09
2023-01-17T09:54:41.388Z,74.03
2023-01-17T09:57:32.522Z,73.48
2023-01-17T10:00:23.032Z,72.82
2023-01-17T10:03:07.740Z,71.65
2023-01-17T10:05:52.614Z,70.31
2023-01-17T10:08:39.830Z,70.98
2023-01-17T10:11:24.841Z,71.01
2023-01-17T10:13:54.207Z,72.21
2023-01-17T10:16:27.136Z,71.32
2023-01-17T10:18:56.687Z,72.65
2023-01-17T10:21:29.916Z,72.53
2023-01-17T10:24:16.324Z,71.73
2023-01-17T10:26:53.561Z,71.59
2023-01-17T10:29:21.194Z,68.35
2023-01-17T10:31:54.203Z,68.16
2023-01-17T10:34:25.430Z,69.25
2023-01-17T10:36:54.066Z,68.67
2023-01-17T10:39:24.842Z,69.51
2023-01-17T10:41:55.772Z,68.05
2023-01-17T10:44:33.320Z,68.25
2023-01-17T10:47:12.273Z,68.16
2023-01-17T10:49:40.124Z,68.26
2023-01-17T10:52:06.492Z,68.42
2023-01-17T10:54:51.450Z,68.97
2023-01-17T10:57:25.295Z,68.80
2023-01-17T10:59:52.302Z,70.23
2023-01-17T11:02:24.858Z,70.65
2023-01-17T11:04:54.520Z,70.59
2023-01-17T11:07:24.623Z,73.28
2023-01-17T11:09:55.970Z,71.82
2023-01-17T11:12:28.463Z,72.14
2023-01-17T11:14:58.694Z,70.70
2023-01-17T11:17:25.720Z,69.56
2023-01-17T11:19:52.291Z,69.50
2023-01-17T11:22:18.918Z,67.48
2023-01-17T11:24:53.243Z,67.12
2023-01-17T11:27:24.592Z,68.56
2023-01-17T11:30:03.516Z,67.24
2023-01-17T11:32:32.147Z,68.70
2023-01-17T11:35:04.802Z,66.92
2023-01-17T11:37:31.353Z,65.19
2023-01-17T11:40:08.563Z,68.45
2023-01-17T11:42:38.300Z,67.03
2023-01-17T11:45:27.126Z,67.63
2023-01-17T11:48:08.553Z,66.59
2023-01-17T11:50:36.022Z,68.24
2023-01-17T11:53:29.781Z,67.86
2023-01-17T11:55:57.457Z,69.99
2023-01-17T11:58:24.389Z,69.62
2023-01-17T12:01:00.999Z,68.60
2023-01-17T12:03:45.314Z,66.09
2023-01-17T12:06:26.670Z,67.64
2023-01-17T12:08:56.205Z,67.20
2023-01-17T12:11:29.422Z,67.94
2023-01-17T12:14:21.205Z,67.34
2023-01-17T12:16:56.752Z,68.97
2023-01-17T12:19:51.261Z,68.28
2023-01-17T12:22:33.710Z,68.17
2023-01-17T12:25:14.884Z,68.11
2023-01-17T12:28:04.468Z,66.43
2023-01-17T12:30:52.493Z,65.94
2023-01-17T12:33:39.072Z,66.19
2023-01-17T12:36:17.472Z,62.35
2023-01-17T12:38:44.926Z,61.78
2023-01-17T12:41:26.686Z,61.64
2023-01-17T12:43:58.730Z,62.79
2023-01-17T12:46:28.716Z,64.35
2023-01-17T12:49:23.625Z,67.33
2023-01-17T12:51:53.505Z,66.48
2023-01-17T12:54:36.821Z,67.77
2023-01-17T12:57:13.950Z,65.46
2023-01-17T12:59:48.616Z,64.65
2023-01-17T13:02:36.704Z,64.59
2023-01-17T13:05:23.522Z,64.02
2023-01-17T13:07:50.443Z,64.08
2023-01-17T13:10:44.346Z,63.48
2023-01-17T13:13:43.473Z,63.24
2023-01-17T13:16:16.565Z,64.16
2023-01-17T13:18:47.348Z,64.07
2023-01-17T13:21:40.213Z,63.15
2023-01-17T13:24:24.710Z,65.12
2023-01-17T13:26:51.148Z,65.42
2023-01-17T13:29:46.409Z,66.80
2023-01-17T13:32:47.065Z,65.71
2023-01-17T13:35:29.142Z,66.19
2023-01-17T13:38:04.435Z,66.63
2023-01-17T13:40:53.668Z,66.28
2023-01-17T13:43:23.996Z,65.93
2023-01-17T13:45:57.943Z,66.49
2023-01-17T13:48:26.260Z,67.84
2023-01-17T13:51:02.795Z,66.11
2023-01-17T13:53:39.383Z,66.21
2023-01-17T13:56:25.567Z,66.22
2023-01-17T13:58:54.489Z,66.66
2023-01-17T14:01:24.195Z,67.90
2023-01-17T14:03:53.343Z,68.17
2023-01-17T14:06:45.535Z,68.85
2023-01-17T14:09:37.853Z,69.91
2023-01-17T14:12:16.020Z,70.10
2023-01-17T14:14:45.185Z,69.32
2023-01-17T14:17:17.761Z,68.71
2023-01-17T14:19:47.698Z,69.00
2023-01-17T14:22:20.135Z,70.47
2023-01-17T14:25:12.182Z,70.73
2023-01-17T14:28:01.605Z,70.90
2023-01-17T14:30:34.205Z,71.80
2023-01-17T14:33:05.755Z,70.06
2023-01-17T14:35:34.136Z,70.59
2023-01-17T14:38:02.973Z,71.99
2023-01-17T14:40:30.860Z,70.50
2023-01-17T14:43:28.554Z,70.82
2023-01-17T14:45:59.300Z,71.05
2023-01-17T14:48:25.865Z,70.48
2023-01-17T15:06:26.757Z,71.06
2023-01-17T15:08:56.087Z,70.15
2023-01-17T15:11:25.012Z,71.48
2023-01-17T15:13:54.836Z,71.59
2023-01-17T15:16:23.086Z,71.85
2023-01-17T15:18:49.921Z,71.77
2023-01-17T15:21:19.269Z,72.61
2023-01-17T15:23:55.886Z,71.28
2023-01-17T15:26:24.369Z,71.80
2023-01-17T15:28:51.737Z,71.79
2023-01-17T15:31:25.626Z,71.81
2023-01-17T15:33:54.136Z,72.44
2023-01-17T15:36:20.487Z,73.73
2023-01-17T15:38:56.389Z,73.63
2023-01-17T15:41:24.291Z,73.70
2023-01-17T15:43:57.552Z,72.96
2023-01-17T15:46:53.392Z,73.93
2023-01-17T15:49:21.303Z,73.55
2023-01-17T15:51:51.791Z,74.88
2023-01-17T15:54:41.920Z,74.80
2023-01-17T15:57:30.968Z,74.22
2023-01-17T15:59:58.505Z,72.90
2023-01-17T16:02:30.811Z,71.79
2023-01-17T16:04:58.007Z,71.66
2023-01-17T16:07:34.208Z,71.02
2023-01-17T16:10:15.585Z,71.54
2023-01-17T16:12:42.832Z,71.93
2023-01-17T16:15:13.545Z,72.13
2023-01-17T16:17:41.016Z,72.52
2023-01-17T16:20:12.015Z,72.87
2023-01-17T16:22:38.508Z,73.91
2023-01-17T16:25:15.224Z,77.05
2023-01-17T16:27:43.109Z,77.90
2023-01-17T16:30:11.219Z,79.16
2023-01-17T16:32:37.856Z,80.13
2023-01-17T16:35:06.911Z,80.61
2023-01-17T16:37:33.447Z,80.83
2023-01-17T16:40:00.215Z,81.22
2023-01-17T16:42:28.562Z,80.94
2023-01-17T16:44:55.173Z,80.32
2023-01-17T16:47:22.029Z,81.02
2023-01-17T16:49:48.523Z,80.72
2023-01-17T16:52:15.013Z,81.12
2023-01-17T16:54:41.558Z,80.93
2023-01-17T16:57:08.061Z,79.83
2023-01-17T16:59:49.656Z,77.43
2023-01-17T17:02:18.625Z,77.84
2023-01-17T17:04:45.400Z,77.94
2023-01-17T17:07:11.919Z,78.15
2023-01-17T17:09:38.565Z,79.12
2023-01-17T17:12:05.453Z,80.02
2023-01-17T17:14:31.974Z,80.01
2023-01-17T17:17:00.838Z,81.37
2023-01-17T17:19:30.063Z,82.38
2023-01-17T17:21:59.775Z,81.96
2023-01-17T17:24:26.395Z,80.83
2023-01-17T17:26:52.931Z,79.84
2023-01-17T17:29:19.642Z,79.88
2023-01-17T17:31:46.351Z,80.35
2023-01-17T17:34:13.534Z,80.75
2023-01-17T17:36:40.168Z,81.64
2023-01-17T17:39:09.074Z,82.17
2023-01-17T17:41:36.373Z,82.22
2023-01-17T17:44:03.512Z,81.65
2023-01-17T17:46:30.120Z,81.97
2023-01-17T17:48:57.106Z,81.35
2023-01-17T17:51:34.222Z,81.76
2023-01-17T17:54:05.265Z,81.22
2023-01-17T17:56:32.070Z,81.65
2023-01-17T17:58:58.979Z,81.96
2023-01-17T18:01:25.697Z,82.43
2023-01-17T18:03:52.458Z,82.55
2023-01-17T18:06:19.283Z,83.04
2023-01-17T18:08:45.889Z,83.31
2023-01-17T18:11:18.558Z,81.86
2023-01-17T18:13:52.982Z,82.72
2023-01-17T18:16:24.427Z,81.92
2023-01-17T18:18:52.586Z,82.61
2023-01-17T18:21:24.993Z,82.71
2023-01-17T18:24:02.595Z,83.26
2023-01-17T18:26:33.588Z,82.96
2023-01-17T18:29:00.300Z,83.21
2023-01-17T18:31:27.548Z,83.25
2023-01-17T18:33:54.518Z,83.01
2023-01-17T18:36:21.255Z,80.41
2023-01-17T18:38:47.961Z,78.92
2023-01-17T18:41:16.424Z,78.76
2023-01-17T18:43:42.959Z,78.22
2023-01-17T18:46:09.994Z,77.57
2023-01-17T18:48:36.618Z,77.23
2023-01-17T18:51:05.191Z,77.22
2023-01-17T18:53:32.320Z,76.84
2023-01-17T18:56:00.099Z,77.41
2023-01-17T18:58:27.421Z,77.43
2023-01-17T19:00:54.085Z,77.01
2023-01-17T19:03:25.791Z,76.33
2023-01-17T19:05:52.331Z,76.06
2023-01-17T19:08:18.839Z,76.25
2023-01-17T19:10:45.378Z,75.46
2023-01-17T19:13:11.937Z,74.85
2023-01-17T19:15:38.753Z,74.54
2023-01-17T19:18:05.433Z,74.77
2023-01-17T19:20:31.951Z,75.29
2023-01-17T19:22:58.467Z,76.13
2023-01-17T19:25:25.620Z,76.82
2023-01-17T19:27:52.963Z,76.80
2023-01-17T19:30:19.733Z,76.43
2023-01-17T19:32:48.884Z,77.15
2023-01-17T19:35:15.987Z,76.81
2023-01-17T19:37:46.721Z,76.72
2023-01-17T19:40:14.463Z,76.62
2023-01-17T19:42:41.129Z,76.78
2023-01-17T19:45:12.239Z,76.82
2023-01-17T19:47:39.496Z,76.22
2023-01-17T19:50:08.384Z,75.84
2023-01-17T19:52:35.575Z,76.32
2023-01-17T19:55:02.486Z,75.81
2023-01-17T19:57:34.844Z,75.93
2023-01-17T20:00:02.026Z,75.80
2023-01-17T20:02:28.739Z,76.24
2023-01-17T20:04:55.330Z,76.69
2023-01-17T20:07:21.979Z,76.12
2023-01-17T20:09:48.446Z,75.15
2023-01-17T20:12:14.981Z,75.91
2023-01-17T20:14:41.533Z,75.63
2023-01-17T20:17:07.997Z,75.86
2023-01-17T20:19:34.530Z,76.18
2023-01-17T20:22:01.555Z,77.68
2023-01-17T20:24:28.112Z,76.94
2023-01-17T20:26:54.717Z,76.35
2023-01-17T20:29:21.281Z,77.73
2023-01-17T20:31:52.328Z,79.11
2023-01-17T20:34:19.697Z,77.87
2023-01-17T20:36:46.418Z,78.25
2023-01-17T20:39:13.756Z,80.45
2023-01-17T20:41:41.361Z,78.03
2023-01-17T20:44:10.472Z,79.38
2023-01-17T20:46:40.653Z,79.94
2023-01-17T20:49:09.829Z,80.86
2023-01-17T20:51:39.954Z,81.27
2023-01-17T20:54:07.552Z,82.74
2023-01-17T20:56:37.849Z,82.21
2023-01-17T20:59:09.465Z,82.59
2023-01-17T21:01:36.630Z,83.51
2023-01-17T21:04:03.210Z,84.40
2023-01-17T21:06:30.508Z,84.84
2023-01-17T21:08:57.012Z,85.66
2023-01-17T21:11:25.124Z,86.19
2023-01-17T21:13:51.863Z,87.02
2023-01-17T21:16:20.308Z,87.45
2023-01-17T21:18:50.638Z,87.49
2023-01-17T21:21:19.130Z,87.70
2023-01-17T21:23:45.757Z,88.20
2023-01-17T21:26:13.545Z,88.37
2023-01-17T21:28:41.470Z,88.49
2023-01-17T21:31:23.122Z,88.69
2023-01-17T21:33:52.023Z,88.81
2023-01-17T21:36:19.206Z,88.92
2023-01-17T21:38:52.649Z,89.56
2023-01-17T21:41:20.544Z,89.27
2023-01-17T21:43:47.321Z,89.02
2023-01-17T21:46:13.901Z,89.03
2023-01-17T21:48:40.640Z,89.07
2023-01-17T21:51:07.321Z,88.99
2023-01-17T21:53:37.405Z,88.86
2023-01-17T21:56:22.992Z,88.94
2023-01-17T21:58:53.680Z,89.30
2023-01-17T22:01:24.954Z,88.89
2023-01-17T22:03:59.091Z,89.03
2023-01-17T22:06:32.585Z,89.42
2023-01-17T22:08:59.343Z,89.28
2023-01-17T22:11:26.730Z,89.83
2023-01-17T22:13:53.349Z,89.97
2023-01-17T22:16:23.324Z,89.75
2023-01-17T22:18:50.104Z,89.82
2023-01-17T22:21:21.180Z,90.09
2023-01-17T22:23:52.515Z,89.86
2023-01-17T22:26:19.988Z,90.30
2023-01-17T22:28:46.542Z,89.92
2023-01-17T22:31:21.204Z,90.28
2023-01-17T22:33:52.370Z,90.04
2023-01-17T22:36:20.111Z,90.11
2023-01-17T22:38:46.865Z,90.23
2023-01-17T22:41:16.023Z,89.90
2023-01-17T22:43:44.553Z,89.67
2023-01-17T22:46:12.436Z,89.67
2023-01-17T22:48:39.140Z,89.64
2023-01-17T22:51:10.126Z,89.52
2023-01-17T22:53:44.259Z,89.66
2023-01-17T22:56:12.564Z,89.58
2023-01-17T22:58:42.123Z,89.62
2023-01-17T23:01:10.894Z,90.00
2023-01-17T23:03:37.661Z,89.86
2023-01-17T23:06:11.748Z,89.56
2023-01-17T23:08:38.747Z,89.50
2023-01-17T23:11:38.867Z,89.63
2023-01-17T23:14:11.881Z,89.88
2023-01-17T23:16:58.247Z,89.59
2023-01-17T23:19:25.555Z,89.65
2023-01-17T23:22:15.782Z,89.50
2023-01-17T23:24:45.645Z,89.42
2023-01-17T23:28:03.796Z,89.14
2023-01-17T23:30:35.385Z,89.83
2023-01-17T23:33:12.428Z,89.27
2023-01-17T23:35:42.247Z,89.33
2023-01-17T23:38:31.196Z,89.74
2023-01-17T23:41:26.328Z,89.65
2023-01-17T23:43:56.513Z,89.52
2023-01-17T23:46:24.006Z,89.48
2023-01-17T23:48:50.760Z,89.75
2023-01-17T23:51:17.374Z,89.76
2023-01-17T23:53:43.856Z,89.96
2023-01-17T23:56:30.600Z,90.01
2023-01-17T23:58:57.646Z,90.26
